sensor_id;sensor_type;location;lat;lon;timestamp;P1;durP1;ratioP1;P2;durP2;ratioP2
14001;SDS011;7076;51.280;12.584;2023-07-24T00:03:34;2.13;;;1.55;;
14001;SDS011;7076;51.280;12.584;2023-07-24T00:08:37;2.30;;;1.42;;
14001;SDS011;7076;51.280;12.584;2023-07-24T00:13:41;1.88;;;1.40;;
14001;SDS011;7076;51.280;12.584;2023-07-24T00:18:44;2.83;;;1.40;;
14001;SDS011;7076;51.280;12.584;2023-07-24T00:23:47;2.22;;;1.48;;
14001;SDS011;7076;51.280;12.584;2023-07-24T00:28:51;1.85;;;1.20;;
14001;SDS011;7076;51.280;12.584;2023-07-24T00:33:54;2.08;;;1.30;;
14001;SDS011;7076;51.280;12.584;2023-07-24T00:38:57;1.63;;;1.38;;
14001;SDS011;7076;51.280;12.584;2023-07-24T00:44:01;1.65;;;1.45;;
14001;SDS011;7076;51.280;12.584;2023-07-24T00:49:04;1.83;;;1.35;;
14001;SDS011;7076;51.280;12.584;2023-07-24T00:54:07;2.45;;;1.40;;
14001;SDS011;7076;51.280;12.584;2023-07-24T00:59:12;3.22;;;1.73;;
14001;SDS011;7076;51.280;12.584;2023-07-24T01:04:15;2.95;;;1.73;;
14001;SDS011;7076;51.280;12.584;2023-07-24T01:09:19;4.30;;;1.38;;
14001;SDS011;7076;51.280;12.584;2023-07-24T01:14:24;2.20;;;1.33;;
14001;SDS011;7076;51.280;12.584;2023-07-24T01:19:33;1.63;;;1.35;;
14001;SDS011;7076;51.280;12.584;2023-07-24T01:24:43;2.72;;;1.75;;
14001;SDS011;7076;51.280;12.584;2023-07-24T01:29:55;2.35;;;1.95;;
14001;SDS011;7076;51.280;12.584;2023-07-24T01:34:58;3.47;;;1.70;;
14001;SDS011;7076;51.280;12.584;2023-07-24T01:40:01;3.42;;;1.67;;
14001;SDS011;7076;51.280;12.584;2023-07-24T01:45:07;2.25;;;1.77;;
14001;SDS011;7076;51.280;12.584;2023-07-24T01:50:10;2.85;;;1.70;;
14001;SDS011;7076;51.280;12.584;2023-07-24T01:55:13;2.53;;;1.73;;
14001;SDS011;7076;51.280;12.584;2023-07-24T02:00:18;3.15;;;2.00;;
14001;SDS011;7076;51.280;12.584;2023-07-24T02:05:21;3.58;;;1.60;;
14001;SDS011;7076;51.280;12.584;2023-07-24T02:10:24;3.95;;;2.20;;
14001;SDS011;7076;51.280;12.584;2023-07-24T02:15:28;1.92;;;1.60;;
14001;SDS011;7076;51.280;12.584;2023-07-24T02:20:31;3.13;;;2.10;;
14001;SDS011;7076;51.280;12.584;2023-07-24T02:25:35;2.17;;;1.88;;
14001;SDS011;7076;51.280;12.584;2023-07-24T02:30:39;2.20;;;2.00;;
14001;SDS011;7076;51.280;12.584;2023-07-24T02:35:42;3.70;;;2.33;;
14001;SDS011;7076;51.280;12.584;2023-07-24T02:40:48;3.90;;;1.90;;
14001;SDS011;7076;51.280;12.584;2023-07-24T02:45:52;2.60;;;2.03;;
14001;SDS011;7076;51.280;12.584;2023-07-24T02:50:57;2.60;;;1.92;;
14001;SDS011;7076;51.280;12.584;2023-07-24T02:56:00;2.50;;;2.03;;
14001;SDS011;7076;51.280;12.584;2023-07-24T03:01:05;3.92;;;2.13;;
14001;SDS011;7076;51.280;12.584;2023-07-24T03:06:09;3.33;;;2.10;;
14001;SDS011;7076;51.280;12.584;2023-07-24T03:11:12;6.38;;;3.30;;
14001;SDS011;7076;51.280;12.584;2023-07-24T03:16:16;3.45;;;3.05;;
14001;SDS011;7076;51.280;12.584;2023-07-24T03:21:21;3.22;;;2.70;;
14001;SDS011;7076;51.280;12.584;2023-07-24T03:26:24;5.60;;;2.28;;
14001;SDS011;7076;51.280;12.584;2023-07-24T03:31:28;3.03;;;2.25;;
14001;SDS011;7076;51.280;12.584;2023-07-24T03:36:31;3.03;;;2.50;;
14001;SDS011;7076;51.280;12.584;2023-07-24T03:41:35;2.80;;;2.45;;
14001;SDS011;7076;51.280;12.584;2023-07-24T03:46:39;4.72;;;2.22;;
14001;SDS011;7076;51.280;12.584;2023-07-24T03:51:42;3.25;;;1.98;;
14001;SDS011;7076;51.280;12.584;2023-07-24T03:56:45;4.28;;;2.30;;
14001;SDS011;7076;51.280;12.584;2023-07-24T04:01:49;5.25;;;2.47;;
14001;SDS011;7076;51.280;12.584;2023-07-24T04:06:52;4.90;;;2.40;;
14001;SDS011;7076;51.280;12.584;2023-07-24T04:11:55;3.35;;;2.55;;
14001;SDS011;7076;51.280;12.584;2023-07-24T04:16:59;3.17;;;2.13;;
14001;SDS011;7076;51.280;12.584;2023-07-24T04:22:02;4.25;;;2.50;;
14001;SDS011;7076;51.280;12.584;2023-07-24T04:27:05;4.55;;;2.30;;
14001;SDS011;7076;51.280;12.584;2023-07-24T04:32:10;3.30;;;2.28;;
14001;SDS011;7076;51.280;12.584;2023-07-24T04:37:12;3.33;;;2.50;;
14001;SDS011;7076;51.280;12.584;2023-07-24T04:42:15;3.47;;;2.40;;
14001;SDS011;7076;51.280;12.584;2023-07-24T04:47:20;4.05;;;2.50;;
14001;SDS011;7076;51.280;12.584;2023-07-24T04:52:22;2.92;;;2.20;;
14001;SDS011;7076;51.280;12.584;2023-07-24T04:57:25;3.63;;;2.40;;
14001;SDS011;7076;51.280;12.584;2023-07-24T05:02:29;3.85;;;2.47;;
14001;SDS011;7076;51.280;12.584;2023-07-24T05:07:33;2.80;;;2.40;;
14001;SDS011;7076;51.280;12.584;2023-07-24T05:12:35;2.88;;;2.30;;
14001;SDS011;7076;51.280;12.584;2023-07-24T05:17:40;4.28;;;2.78;;
14001;SDS011;7076;51.280;12.584;2023-07-24T05:22:42;3.33;;;2.58;;
14001;SDS011;7076;51.280;12.584;2023-07-24T05:27:45;4.75;;;2.30;;
14001;SDS011;7076;51.280;12.584;2023-07-24T05:32:50;3.83;;;2.30;;
14001;SDS011;7076;51.280;12.584;2023-07-24T05:37:53;3.70;;;2.28;;
14001;SDS011;7076;51.280;12.584;2023-07-24T05:42:56;3.30;;;2.70;;
14001;SDS011;7076;51.280;12.584;2023-07-24T05:48:00;3.22;;;2.50;;
14001;SDS011;7076;51.280;12.584;2023-07-24T05:53:03;3.50;;;2.78;;
14001;SDS011;7076;51.280;12.584;2023-07-24T05:58:06;8.68;;;2.72;;
14001;SDS011;7076;51.280;12.584;2023-07-24T06:03:10;3.67;;;2.60;;
14001;SDS011;7076;51.280;12.584;2023-07-24T06:08:13;4.20;;;2.88;;
14001;SDS011;7076;51.280;12.584;2023-07-24T06:13:16;6.05;;;2.65;;
14001;SDS011;7076;51.280;12.584;2023-07-24T06:18:20;7.78;;;2.72;;
14001;SDS011;7076;51.280;12.584;2023-07-24T06:23:23;6.00;;;2.72;;
14001;SDS011;7076;51.280;12.584;2023-07-24T06:28:26;4.72;;;2.90;;
14001;SDS011;7076;51.280;12.584;2023-07-24T06:33:31;7.25;;;2.83;;
14001;SDS011;7076;51.280;12.584;2023-07-24T06:38:34;5.30;;;3.10;;
14001;SDS011;7076;51.280;12.584;2023-07-24T06:43:37;4.03;;;2.75;;
14001;SDS011;7076;51.280;12.584;2023-07-24T06:48:42;7.07;;;3.00;;
14001;SDS011;7076;51.280;12.584;2023-07-24T06:53:53;3.72;;;2.53;;
14001;SDS011;7076;51.280;12.584;2023-07-24T06:58:56;4.97;;;2.67;;
14001;SDS011;7076;51.280;12.584;2023-07-24T07:04:01;4.00;;;3.00;;
14001;SDS011;7076;51.280;12.584;2023-07-24T07:09:05;4.75;;;3.13;;
14001;SDS011;7076;51.280;12.584;2023-07-24T07:14:09;3.15;;;2.60;;
14001;SDS011;7076;51.280;12.584;2023-07-24T07:19:15;3.72;;;3.10;;
14001;SDS011;7076;51.280;12.584;2023-07-24T07:24:24;5.40;;;2.90;;
14001;SDS011;7076;51.280;12.584;2023-07-24T07:29:28;5.30;;;3.22;;
14001;SDS011;7076;51.280;12.584;2023-07-24T07:34:35;4.53;;;3.10;;
14001;SDS011;7076;51.280;12.584;2023-07-24T07:39:40;5.75;;;3.05;;
14001;SDS011;7076;51.280;12.584;2023-07-24T07:44:43;3.80;;;3.05;;
14001;SDS011;7076;51.280;12.584;2023-07-24T07:49:48;5.32;;;3.05;;
14001;SDS011;7076;51.280;12.584;2023-07-24T07:54:52;4.72;;;2.90;;
14001;SDS011;7076;51.280;12.584;2023-07-24T07:59:57;5.18;;;3.20;;
14001;SDS011;7076;51.280;12.584;2023-07-24T08:05:01;4.00;;;3.03;;
14001;SDS011;7076;51.280;12.584;2023-07-24T08:10:14;4.50;;;3.05;;
14001;SDS011;7076;51.280;12.584;2023-07-24T08:15:18;4.43;;;2.83;;
14001;SDS011;7076;51.280;12.584;2023-07-24T08:20:23;4.00;;;2.70;;
14001;SDS011;7076;51.280;12.584;2023-07-24T08:25:29;3.25;;;2.40;;
14001;SDS011;7076;51.280;12.584;2023-07-24T08:30:36;3.92;;;3.00;;
14001;SDS011;7076;51.280;12.584;2023-07-24T08:35:42;3.95;;;3.00;;
14001;SDS011;7076;51.280;12.584;2023-07-24T08:40:45;4.68;;;2.88;;
14001;SDS011;7076;51.280;12.584;2023-07-24T08:45:52;4.85;;;2.83;;
14001;SDS011;7076;51.280;12.584;2023-07-24T08:50:57;7.72;;;3.55;;
14001;SDS011;7076;51.280;12.584;2023-07-24T08:56:15;4.85;;;2.92;;
14001;SDS011;7076;51.280;12.584;2023-07-24T09:01:18;5.65;;;3.28;;
14001;SDS011;7076;51.280;12.584;2023-07-24T09:06:32;3.92;;;2.72;;
14001;SDS011;7076;51.280;12.584;2023-07-24T09:11:45;5.40;;;3.22;;
14001;SDS011;7076;51.280;12.584;2023-07-24T09:17:03;5.55;;;3.13;;
14001;SDS011;7076;51.280;12.584;2023-07-24T09:22:14;3.92;;;3.33;;
14001;SDS011;7076;51.280;12.584;2023-07-24T09:27:24;6.68;;;3.55;;
14001;SDS011;7076;51.280;12.584;2023-07-24T09:32:29;4.30;;;3.60;;
14001;SDS011;7076;51.280;12.584;2023-07-24T09:37:35;7.65;;;3.50;;
14001;SDS011;7076;51.280;12.584;2023-07-24T09:42:39;5.82;;;3.53;;
14001;SDS011;7076;51.280;12.584;2023-07-24T09:48:02;5.05;;;3.35;;
14001;SDS011;7076;51.280;12.584;2023-07-24T09:53:33;5.47;;;3.22;;
14001;SDS011;7076;51.280;12.584;2023-07-24T09:58:40;8.35;;;3.95;;
14001;SDS011;7076;51.280;12.584;2023-07-24T10:03:48;6.47;;;3.85;;
14001;SDS011;7076;51.280;12.584;2023-07-24T10:08:53;4.97;;;3.85;;
14001;SDS011;7076;51.280;12.584;2023-07-24T10:14:03;4.68;;;3.65;;
14001;SDS011;7076;51.280;12.584;2023-07-24T10:19:12;5.88;;;3.80;;
14001;SDS011;7076;51.280;12.584;2023-07-24T10:24:18;9.38;;;4.10;;
14001;SDS011;7076;51.280;12.584;2023-07-24T10:29:42;10.90;;;4.57;;
14001;SDS011;7076;51.280;12.584;2023-07-24T10:34:58;7.75;;;4.10;;
14001;SDS011;7076;51.280;12.584;2023-07-24T10:40:04;6.35;;;4.35;;
14001;SDS011;7076;51.280;12.584;2023-07-24T10:45:10;6.97;;;4.63;;
14001;SDS011;7076;51.280;12.584;2023-07-24T10:50:18;7.53;;;4.60;;
14001;SDS011;7076;51.280;12.584;2023-07-24T10:55:26;6.85;;;4.43;;
14001;SDS011;7076;51.280;12.584;2023-07-24T11:00:29;7.35;;;4.70;;
14001;SDS011;7076;51.280;12.584;2023-07-24T11:05:34;6.88;;;4.85;;
14001;SDS011;7076;51.280;12.584;2023-07-24T11:10:39;6.50;;;4.47;;
14001;SDS011;7076;51.280;12.584;2023-07-24T11:15:47;6.70;;;5.00;;
14001;SDS011;7076;51.280;12.584;2023-07-24T11:20:53;8.07;;;4.35;;
14001;SDS011;7076;51.280;12.584;2023-07-24T11:25:59;7.25;;;5.03;;
14001;SDS011;7076;51.280;12.584;2023-07-24T11:31:02;10.48;;;5.07;;
14001;SDS011;7076;51.280;12.584;2023-07-24T11:36:06;8.05;;;4.88;;
14001;SDS011;7076;51.280;12.584;2023-07-24T11:41:11;7.35;;;5.55;;
14001;SDS011;7076;51.280;12.584;2023-07-24T11:46:22;6.85;;;5.35;;
14001;SDS011;7076;51.280;12.584;2023-07-24T11:51:26;7.43;;;4.60;;
14001;SDS011;7076;51.280;12.584;2023-07-24T11:56:33;8.38;;;5.13;;
14001;SDS011;7076;51.280;12.584;2023-07-24T12:01:36;7.18;;;4.93;;
14001;SDS011;7076;51.280;12.584;2023-07-24T12:06:39;7.88;;;4.50;;
14001;SDS011;7076;51.280;12.584;2023-07-24T12:11:43;8.18;;;4.93;;
14001;SDS011;7076;51.280;12.584;2023-07-24T12:16:48;8.23;;;5.18;;
14001;SDS011;7076;51.280;12.584;2023-07-24T12:21:51;7.90;;;4.38;;
14001;SDS011;7076;51.280;12.584;2023-07-24T12:26:55;6.07;;;4.60;;
14001;SDS011;7076;51.280;12.584;2023-07-24T12:31:58;8.35;;;4.63;;
14001;SDS011;7076;51.280;12.584;2023-07-24T12:37:01;7.05;;;5.35;;
14001;SDS011;7076;51.280;12.584;2023-07-24T12:42:07;9.50;;;8.00;;
14001;SDS011;7076;51.280;12.584;2023-07-24T12:47:11;8.45;;;5.07;;
14001;SDS011;7076;51.280;12.584;2023-07-24T12:52:15;6.45;;;4.63;;
14001;SDS011;7076;51.280;12.584;2023-07-24T12:57:20;9.05;;;5.78;;
14001;SDS011;7076;51.280;12.584;2023-07-24T13:02:23;7.15;;;4.57;;
14001;SDS011;7076;51.280;12.584;2023-07-24T13:07:27;6.55;;;5.13;;
14001;SDS011;7076;51.280;12.584;2023-07-24T13:12:32;6.22;;;4.85;;
14001;SDS011;7076;51.280;12.584;2023-07-24T13:17:35;6.55;;;5.18;;
14001;SDS011;7076;51.280;12.584;2023-07-24T13:22:38;6.82;;;4.53;;
14001;SDS011;7076;51.280;12.584;2023-07-24T13:27:43;8.95;;;4.88;;
14001;SDS011;7076;51.280;12.584;2023-07-24T13:32:46;6.72;;;5.00;;
14001;SDS011;7076;51.280;12.584;2023-07-24T13:37:50;8.50;;;4.80;;
14001;SDS011;7076;51.280;12.584;2023-07-24T13:42:54;6.60;;;4.82;;
14001;SDS011;7076;51.280;12.584;2023-07-24T13:47:57;8.02;;;4.88;;
14001;SDS011;7076;51.280;12.584;2023-07-24T13:53:00;5.35;;;4.70;;
14001;SDS011;7076;51.280;12.584;2023-07-24T13:58:05;8.93;;;4.82;;
14001;SDS011;7076;51.280;12.584;2023-07-24T14:03:08;6.78;;;4.68;;
14001;SDS011;7076;51.280;12.584;2023-07-24T14:08:11;6.95;;;4.28;;
14001;SDS011;7076;51.280;12.584;2023-07-24T14:13:15;5.32;;;4.07;;
14001;SDS011;7076;51.280;12.584;2023-07-24T14:18:19;6.40;;;4.15;;
14001;SDS011;7076;51.280;12.584;2023-07-24T14:23:22;5.53;;;3.92;;
14001;SDS011;7076;51.280;12.584;2023-07-24T14:28:27;7.03;;;4.15;;
14001;SDS011;7076;51.280;12.584;2023-07-24T14:33:30;7.53;;;4.50;;
14001;SDS011;7076;51.280;12.584;2023-07-24T14:38:33;6.32;;;4.32;;
14001;SDS011;7076;51.280;12.584;2023-07-24T14:43:37;6.38;;;4.18;;
14001;SDS011;7076;51.280;12.584;2023-07-24T14:48:41;11.98;;;4.75;;
14001;SDS011;7076;51.280;12.584;2023-07-24T14:53:44;8.55;;;4.57;;
14001;SDS011;7076;51.280;12.584;2023-07-24T14:58:48;7.10;;;4.95;;
14001;SDS011;7076;51.280;12.584;2023-07-24T15:03:51;6.90;;;4.03;;
14001;SDS011;7076;51.280;12.584;2023-07-24T15:08:56;8.68;;;5.22;;
14001;SDS011;7076;51.280;12.584;2023-07-24T15:14:01;5.45;;;4.50;;
14001;SDS011;7076;51.280;12.584;2023-07-24T15:19:04;5.45;;;4.95;;
14001;SDS011;7076;51.280;12.584;2023-07-24T15:24:08;6.75;;;5.00;;
14001;SDS011;7076;51.280;12.584;2023-07-24T15:29:13;4.50;;;4.07;;
14001;SDS011;7076;51.280;12.584;2023-07-24T15:34:20;5.53;;;4.90;;
14001;SDS011;7076;51.280;12.584;2023-07-24T15:39:23;6.25;;;4.22;;
14001;SDS011;7076;51.280;12.584;2023-07-24T15:44:30;5.22;;;4.25;;
14001;SDS011;7076;51.280;12.584;2023-07-24T15:49:33;4.75;;;4.15;;
14001;SDS011;7076;51.280;12.584;2023-07-24T15:54:36;5.47;;;4.38;;
14001;SDS011;7076;51.280;12.584;2023-07-24T15:59:41;6.60;;;4.32;;
14001;SDS011;7076;51.280;12.584;2023-07-24T16:04:44;5.15;;;4.65;;
14001;SDS011;7076;51.280;12.584;2023-07-24T16:09:47;6.55;;;4.78;;
14001;SDS011;7076;51.280;12.584;2023-07-24T16:15:10;6.15;;;4.45;;
14001;SDS011;7076;51.280;12.584;2023-07-24T16:20:18;4.70;;;4.20;;
14001;SDS011;7076;51.280;12.584;2023-07-24T16:25:24;7.05;;;4.60;;
14001;SDS011;7076;51.280;12.584;2023-07-24T16:30:31;6.15;;;4.40;;
14001;SDS011;7076;51.280;12.584;2023-07-24T16:35:35;7.28;;;4.65;;
14001;SDS011;7076;51.280;12.584;2023-07-24T16:40:38;8.15;;;4.00;;
14001;SDS011;7076;51.280;12.584;2023-07-24T16:45:43;5.82;;;4.63;;
14001;SDS011;7076;51.280;12.584;2023-07-24T16:50:53;9.02;;;4.50;;
14001;SDS011;7076;51.280;12.584;2023-07-24T16:55:56;11.75;;;6.20;;
14001;SDS011;7076;51.280;12.584;2023-07-24T17:01:01;13.27;;;4.28;;
14001;SDS011;7076;51.280;12.584;2023-07-24T17:06:06;6.78;;;4.28;;
14001;SDS011;7076;51.280;12.584;2023-07-24T17:11:14;5.60;;;4.13;;
14001;SDS011;7076;51.280;12.584;2023-07-24T17:16:25;7.70;;;5.38;;
14001;SDS011;7076;51.280;12.584;2023-07-24T17:21:29;7.40;;;4.47;;
14001;SDS011;7076;51.280;12.584;2023-07-24T17:26:40;5.43;;;3.65;;
14001;SDS011;7076;51.280;12.584;2023-07-24T17:31:48;7.47;;;3.90;;
14001;SDS011;7076;51.280;12.584;2023-07-24T17:36:59;61.95;;;4.20;;
14001;SDS011;7076;51.280;12.584;2023-07-24T17:42:02;15.93;;;2.40;;
14001;SDS011;7076;51.280;12.584;2023-07-24T17:47:19;17.02;;;2.95;;
14001;SDS011;7076;51.280;12.584;2023-07-24T17:52:27;5.03;;;1.92;;
14001;SDS011;7076;51.280;12.584;2023-07-24T17:57:30;6.35;;;2.05;;
14001;SDS011;7076;51.280;12.584;2023-07-24T18:02:35;4.30;;;2.00;;
14001;SDS011;7076;51.280;12.584;2023-07-24T18:07:43;4.05;;;2.15;;
14001;SDS011;7076;51.280;12.584;2023-07-24T18:12:46;4.30;;;2.00;;
14001;SDS011;7076;51.280;12.584;2023-07-24T18:17:50;3.15;;;1.58;;
14001;SDS011;7076;51.280;12.584;2023-07-24T18:22:54;7.22;;;2.15;;
14001;SDS011;7076;51.280;12.584;2023-07-24T18:27:58;5.40;;;2.08;;
14001;SDS011;7076;51.280;12.584;2023-07-24T18:33:02;4.78;;;2.08;;
14001;SDS011;7076;51.280;12.584;2023-07-24T18:38:07;6.20;;;2.22;;
14001;SDS011;7076;51.280;12.584;2023-07-24T18:43:11;4.55;;;1.90;;
14001;SDS011;7076;51.280;12.584;2023-07-24T18:48:21;2.70;;;1.48;;
14001;SDS011;7076;51.280;12.584;2023-07-24T18:53:27;6.18;;;1.85;;
14001;SDS011;7076;51.280;12.584;2023-07-24T18:58:35;5.28;;;2.03;;
14001;SDS011;7076;51.280;12.584;2023-07-24T19:03:42;4.22;;;1.95;;
14001;SDS011;7076;51.280;12.584;2023-07-24T19:08:50;7.65;;;3.03;;
14001;SDS011;7076;51.280;12.584;2023-07-24T19:13:54;4.13;;;1.60;;
14001;SDS011;7076;51.280;12.584;2023-07-24T19:18:58;2.63;;;1.85;;
14001;SDS011;7076;51.280;12.584;2023-07-24T19:24:05;2.58;;;1.52;;
14001;SDS011;7076;51.280;12.584;2023-07-24T19:29:10;3.08;;;1.80;;
14001;SDS011;7076;51.280;12.584;2023-07-24T19:34:16;5.15;;;1.70;;
14001;SDS011;7076;51.280;12.584;2023-07-24T19:39:19;4.13;;;2.25;;
14001;SDS011;7076;51.280;12.584;2023-07-24T19:44:23;4.57;;;1.55;;
14001;SDS011;7076;51.280;12.584;2023-07-24T19:49:28;1.75;;;1.40;;
14001;SDS011;7076;51.280;12.584;2023-07-24T19:54:31;3.03;;;1.60;;
14001;SDS011;7076;51.280;12.584;2023-07-24T19:59:35;3.13;;;1.50;;
14001;SDS011;7076;51.280;12.584;2023-07-24T20:04:39;4.75;;;1.67;;
14001;SDS011;7076;51.280;12.584;2023-07-24T20:09:42;3.42;;;1.60;;
14001;SDS011;7076;51.280;12.584;2023-07-24T20:14:46;3.65;;;1.85;;
14001;SDS011;7076;51.280;12.584;2023-07-24T20:19:51;5.60;;;1.88;;
14001;SDS011;7076;51.280;12.584;2023-07-24T20:24:55;5.13;;;1.67;;
14001;SDS011;7076;51.280;12.584;2023-07-24T20:30:02;2.63;;;1.77;;
14001;SDS011;7076;51.280;12.584;2023-07-24T20:35:09;3.08;;;2.00;;
14001;SDS011;7076;51.280;12.584;2023-07-24T20:40:12;2.85;;;1.88;;
14001;SDS011;7076;51.280;12.584;2023-07-24T20:45:23;3.75;;;1.92;;
14001;SDS011;7076;51.280;12.584;2023-07-24T20:50:31;3.45;;;1.77;;
14001;SDS011;7076;51.280;12.584;2023-07-24T20:55:37;4.25;;;2.20;;
14001;SDS011;7076;51.280;12.584;2023-07-24T21:00:40;7.38;;;2.15;;
14001;SDS011;7076;51.280;12.584;2023-07-24T21:05:48;3.25;;;2.05;;
14001;SDS011;7076;51.280;12.584;2023-07-24T21:10:52;3.17;;;1.80;;
14001;SDS011;7076;51.280;12.584;2023-07-24T21:15:55;5.90;;;1.63;;
14001;SDS011;7076;51.280;12.584;2023-07-24T21:21:01;3.53;;;2.10;;
14001;SDS011;7076;51.280;12.584;2023-07-24T21:26:09;5.22;;;2.08;;
14001;SDS011;7076;51.280;12.584;2023-07-24T21:31:12;4.15;;;1.95;;
14001;SDS011;7076;51.280;12.584;2023-07-24T21:36:17;8.15;;;1.85;;
14001;SDS011;7076;51.280;12.584;2023-07-24T21:41:20;3.22;;;1.95;;
14001;SDS011;7076;51.280;12.584;2023-07-24T21:46:23;5.43;;;1.92;;
14001;SDS011;7076;51.280;12.584;2023-07-24T21:51:28;4.82;;;2.22;;
14001;SDS011;7076;51.280;12.584;2023-07-24T21:56:31;6.10;;;2.00;;
14001;SDS011;7076;51.280;12.584;2023-07-24T22:01:36;2.40;;;2.00;;
14001;SDS011;7076;51.280;12.584;2023-07-24T22:06:41;8.38;;;2.30;;
14001;SDS011;7076;51.280;12.584;2023-07-24T22:11:44;5.57;;;2.38;;
14001;SDS011;7076;51.280;12.584;2023-07-24T22:16:47;4.07;;;2.05;;
14001;SDS011;7076;51.280;12.584;2023-07-24T22:21:52;3.47;;;1.73;;
14001;SDS011;7076;51.280;12.584;2023-07-24T22:26:57;5.00;;;2.17;;
14001;SDS011;7076;51.280;12.584;2023-07-24T22:32:00;4.25;;;1.75;;
14001;SDS011;7076;51.280;12.584;2023-07-24T22:37:06;5.88;;;2.20;;
14001;SDS011;7076;51.280;12.584;2023-07-24T22:42:09;7.90;;;2.30;;
14001;SDS011;7076;51.280;12.584;2023-07-24T22:47:12;7.55;;;2.20;;
14001;SDS011;7076;51.280;12.584;2023-07-24T22:52:17;9.20;;;2.00;;
14001;SDS011;7076;51.280;12.584;2023-07-24T22:57:20;9.38;;;2.25;;
14001;SDS011;7076;51.280;12.584;2023-07-24T23:02:23;5.90;;;2.00;;
14001;SDS011;7076;51.280;12.584;2023-07-24T23:07:27;11.35;;;1.98;;
14001;SDS011;7076;51.280;12.584;2023-07-24T23:12:30;9.50;;;2.22;;
14001;SDS011;7076;51.280;12.584;2023-07-24T23:17:33;7.95;;;2.38;;
14001;SDS011;7076;51.280;12.584;2023-07-24T23:22:37;5.60;;;1.70;;
14001;SDS011;7076;51.280;12.584;2023-07-24T23:27:41;8.07;;;1.70;;
14001;SDS011;7076;51.280;12.584;2023-07-24T23:32:44;4.10;;;1.65;;
14001;SDS011;7076;51.280;12.584;2023-07-24T23:37:48;8.85;;;2.28;;
14001;SDS011;7076;51.280;12.584;2023-07-24T23:42:51;7.68;;;1.98;;
14001;SDS011;7076;51.280;12.584;2023-07-24T23:47:54;6.25;;;1.77;;
14001;SDS011;7076;51.280;12.584;2023-07-24T23:52:58;5.32;;;2.10;;
14001;SDS011;7076;51.280;12.584;2023-07-24T23:58:02;6.55;;;1.70;;
